Flight Track Log - Related Links

Times and Time Zones

All times are in EDT time to prevent confusion due to time zone crossing. See the CTL21 flight status page for this flight to view local times or setup timezone preferences in your user account.

Time Position Orientation Groundspeed Altitude Reporting Facility
EDT Latitude Longitude Course Direction KTS MPH feet Rate Location/Type
Fri 05:14:16 PM 42.2267 -85.4167 118° Southeast 166 191 3,000  Level Chicago Center
Fri 05:15:18 PM 42.2000 -85.3561 121° Southeast 180 207 3,100  Climbing Chicago Center
Fri 05:16:20 PM 42.1697 -85.2808 118° Southeast 189 217 3,000 -48 Descending Chicago Center
Fri 05:17:00 PM 42.1714 -85.1777 103° East  Level Estimated
Fri 05:17:23 PM 42.1444 -85.2211 120° Southeast 187 215 3,000  Level Chicago Center
Fri 05:18:00 PM 42.1601 -85.1110 103° East  Level Estimated
Fri 05:18:25 PM 42.1203 -85.1617 119° Southeast 183 211 3,000  Level Chicago Center
Fri 05:19:27 PM 42.0964 -85.1006 118° Southeast 183 211 3,100  Climbing Chicago Center
Fri 05:20:29 PM 42.0706 -85.0389 119° Southeast 185 213 3,000 -48 Descending Chicago Center
Fri 05:21:31 PM 42.0439 -84.9792 121° Southeast 186 214 3,000  Level Chicago Center
Fri 05:22:33 PM 42.0122 -84.9069 121° Southeast 186 214 3,000 48 Level Chicago Center
Fri 05:23:35 PM 41.9828 -84.8497 125° Southeast 186 214 3,100  Climbing Chicago Center
Fri 05:24:37 PM 41.9531 -84.7919 125° Southeast 186 214 3,000 -48 Descending Chicago Center
Fri 05:25:39 PM 41.9239 -84.7336 124° Southeast 187 215 3,000  Level Chicago Center
Fri 05:26:41 PM 41.8936 -84.6750 125° Southeast 189 217 3,000 48 Level Chicago Center
Fri 05:27:43 PM 41.8658 -84.6164 122° Southeast 188 216 3,100  Climbing Chicago Center
Fri 05:28:45 PM 41.8386 -84.5553 121° Southeast 189 217 3,000  Descending Chicago Center
Fri 05:29:48 PM 41.8069 -84.4817 120° Southeast 190 219 3,100 48 Climbing Chicago Center
Fri 05:30:50 PM 41.7794 -84.4211 121° Southeast 190 219 3,100  Level Chicago Center
Fri 05:31:52 PM 41.7528 -84.3597 120° Southeast 190 219 3,100 -48 Level Chicago Center
Fri 05:32:54 PM 41.7289 -84.2964 117° Southeast 191 220 3,000 -48 Descending Chicago Center
Fri 05:33:56 PM 41.7039 -84.2356 119° Southeast 190 219 3,000  Level Chicago Center
Fri 05:34:58 PM 41.6783 -84.1736 119° Southeast 190 219 3,000  Level Chicago Center

Login

Don't have an account? Register now (free) for customized features, flight alerts, and more!